Time;durP1;ratioP1;P1;durP2;ratioP2;P2;SDS_P1;SDS_P2;PMS_P1;PMS_P2;Temp;Humidity;BMP_temperature;BMP_pressure;BME280_temperature;BME280_humidity;BME280_pressure;Samples;Min_cycle;Max_cycle;Signal;HPM_P1;HPM_P2
2023/06/12 00:01:03;;;;;;;9.07;4.65;;;;;;;18.94;100.00;99786.00;5030827;28;20061;-68
2023/06/12 00:03:29;;;;;;;9.35;4.15;;;;;;;18.78;100.00;99776.50;5032152;28;20029;-68
2023/06/12 00:06:00;;;;;;;9.02;4.40;;;;;;;18.71;100.00;99788.75;5032377;28;20076;-65
2023/06/12 00:08:32;;;;;;;7.72;4.50;;;;;;;18.59;100.00;99798.44;5031687;28;20033;-65
2023/06/12 00:10:58;;;;;;;8.73;4.15;;;;;;;18.56;100.00;99785.34;5031852;28;20479;-68
2023/06/12 00:13:24;;;;;;;7.82;3.40;;;;;;;18.61;100.00;99777.50;5032043;28;20029;-66
2023/06/12 00:15:49;;;;;;;8.27;3.53;;;;;;;18.62;100.00;99787.06;5032021;28;20037;-67
2023/06/12 00:18:15;;;;;;;4.80;3.70;;;;;;;18.64;100.00;99795.78;5032121;28;20045;-67
2023/06/12 00:20:41;;;;;;;7.68;3.72;;;;;;;18.61;100.00;99795.78;5031568;28;20018;-68
2023/06/12 00:23:10;;;;;;;20.75;5.20;;;;;;;18.52;100.00;99796.72;5031959;28;20148;-69
2023/06/12 00:25:36;;;;;;;60.93;5.50;;;;;;;18.16;100.00;99788.22;5031409;28;20030;-67
2023/06/12 00:28:01;;;;;;;32.45;4.80;;;;;;;17.83;100.00;99779.66;5031888;28;20033;-69
2023/06/12 00:30:27;;;;;;;64.82;5.47;;;;;;;17.84;100.00;99793.56;5031233;28;20056;-65
2023/06/12 00:32:52;;;;;;;22.35;5.10;;;;;;;17.85;100.00;99792.69;5031610;28;20115;-72
2023/06/12 00:35:18;;;;;;;10.85;4.22;;;;;;;17.85;100.00;99804.00;5031031;28;20546;-69
2023/06/12 00:37:47;;;;;;;9.25;4.38;;;;;;;17.73;100.00;99801.41;5031343;28;20029;-67
2023/06/12 00:40:13;;;;;;;20.83;5.15;;;;;;;17.38;100.00;99769.31;5031286;28;20025;-65
2023/06/12 00:42:47;;;;;;;13.27;5.05;;;;;;;17.63;100.00;99814.50;5030029;28;20414;-72
2023/06/12 00:45:17;;;;;;;11.65;4.57;;;;;;;17.40;100.00;99814.53;5031221;28;20116;-71
2023/06/12 00:47:46;;;;;;;14.07;5.38;;;;;;;17.25;100.00;99819.78;5030544;28;20033;-67
2023/06/12 00:50:16;;;;;;;10.60;5.43;;;;;;;17.00;100.00;99801.53;5030968;28;20472;-69
2023/06/12 00:52:45;;;;;;;16.50;6.07;;;;;;;17.15;100.00;99816.31;5030905;28;20263;-71
2023/06/12 00:55:11;;;;;;;11.18;5.35;;;;;;;17.34;100.00;99811.09;5031077;28;20477;-65
2023/06/12 00:57:38;;;;;;;21.58;4.75;;;;;;;17.40;100.00;99798.88;5031038;28;20081;-66
2023/06/12 01:00:07;;;;;;;12.25;5.63;;;;;;;17.55;100.00;99816.25;5030631;28;20096;-68
2023/06/12 01:02:33;;;;;;;;;;;;;;;17.53;100.00;99809.31;5030504;28;20426;-70
2023/06/12 01:04:59;;;;;;;31.88;5.10;;;;;;;17.44;100.00;99804.97;5030898;28;19912;-67
2023/06/12 01:07:33;;;;;;;34.10;5.03;;;;;;;17.45;100.00;99809.31;5031058;28;20052;-66
2023/06/12 01:10:11;;;;;;;14.57;5.35;;;;;;;17.54;100.00;99814.50;5030697;28;20083;-67
2023/06/12 01:12:38;;;;;;;17.63;5.20;;;;;;;17.54;100.00;99817.13;5029614;28;20056;-66
2023/06/12 01:15:03;;;;;;;17.92;4.63;;;;;;;17.42;100.00;99824.97;5030616;28;20586;-71
2023/06/12 01:17:29;;;;;;;22.63;4.50;;;;;;;16.88;100.00;99762.41;5030505;28;20068;-67
2023/06/12 01:19:57;;;;;;;20.73;5.38;;;;;;;17.34;100.00;99818.91;5031222;28;20030;-65
2023/06/12 01:22:26;;;;;;;26.83;4.55;;;;;;;17.30;100.00;99812.84;5030812;28;20032;-66
2023/06/12 01:25:23;;;;;;;23.02;5.68;;;;;;;17.42;100.00;99830.19;5031065;28;20056;-66
2023/06/12 01:28:11;;;;;;;11.02;5.10;;;;;;;17.48;100.00;99814.53;5030732;28;20037;-65
2023/06/12 01:31:06;;;;;;;9.68;4.15;;;;;;;17.56;100.00;99817.16;5030221;28;20033;-65
2023/06/12 01:33:37;;;;;;;8.95;4.32;;;;;;;17.50;100.00;99819.78;5030224;28;20450;-67
2023/06/12 01:36:07;;;;;;;8.52;4.28;;;;;;;17.45;100.00;99810.19;5030339;28;20053;-69
2023/06/12 01:38:35;;;;;;;9.15;4.35;;;;;;;17.65;100.00;99818.88;5029012;28;20036;-67
2023/06/12 01:41:02;;;;;;;12.15;4.80;;;;;;;17.60;100.00;99826.69;5030355;28;20033;-66
2023/06/12 01:43:27;;;;;;;5.70;4.20;;;;;;;17.36;100.00;99830.19;5029444;28;20033;-65
2023/06/12 01:45:53;;;;;;;10.88;5.47;;;;;;;17.19;100.00;99833.69;5030595;28;20117;-66
2023/06/12 01:48:18;;;;;;;12.52;5.20;;;;;;;17.14;100.00;99830.22;5029709;28;20561;-68
2023/06/12 01:50:44;;;;;;;6.13;4.57;;;;;;;16.85;100.00;99765.88;5030028;28;20120;-66
2023/06/12 01:53:15;;;;;;;7.57;4.20;;;;;;;17.01;100.00;99778.94;5030277;28;20029;-66
2023/06/12 01:55:41;;;;;;;6.10;4.57;;;;;;;17.28;100.00;99810.22;5030225;28;20091;-65
2023/06/12 01:58:08;;;;;;;6.85;4.55;;;;;;;17.43;100.00;99818.88;5029789;28;20492;-66
2023/06/12 02:00:35;;;;;;;7.13;3.88;;;;;;;17.38;100.00;99803.22;5030139;28;20053;-67
2023/06/12 02:03:01;;;;;;;6.05;4.10;;;;;;;17.51;100.00;99809.31;5029920;28;20029;-69
2023/06/12 02:05:27;;;;;;;6.72;4.30;;;;;;;17.38;100.00;99784.13;5030110;28;20025;-66
2023/06/12 02:07:52;;;;;;;8.27;4.40;;;;;;;17.32;100.00;99813.72;5029690;28;20033;-69
2023/06/12 02:10:18;;;;;;;6.80;3.80;;;;;;;17.01;100.00;99828.47;5028795;28;20034;-69
2023/06/12 02:12:43;;;;;;;5.72;3.83;;;;;;;16.92;100.00;99806.78;5030004;28;20033;-65
2023/06/12 02:15:12;;;;;;;8.90;4.20;;;;;;;16.78;100.00;99774.56;5029602;28;20021;-65
2023/06/12 02:17:39;;;;;;;5.78;4.57;;;;;;;16.76;100.00;99774.56;5027299;28;20037;-66
2023/06/12 02:20:05;;;;;;;7.82;4.10;;;;;;;17.17;100.00;99834.56;5030048;28;20088;-70
2023/06/12 02:22:30;;;;;;;8.38;3.80;;;;;;;17.14;100.00;99814.56;5029689;28;20403;-65
2023/06/12 02:24:56;;;;;;;8.38;3.47;;;;;;;16.75;100.00;99770.22;5029854;28;20033;-69
2023/06/12 02:27:22;;;;;;;8.43;4.28;;;;;;;16.69;100.00;99777.19;5029846;28;20025;-70
2023/06/12 02:29:48;;;;;;;14.52;3.83;;;;;;;16.24;100.00;99772.75;5029154;28;20473;-67
2023/06/12 02:32:13;;;;;;;9.25;4.45;;;;;;;16.30;100.00;99827.47;5029284;28;20503;-65
2023/06/12 02:34:39;;;;;;;4.45;3.83;;;;;;;16.32;100.00;99824.84;5029782;28;20122;-65
2023/06/12 02:37:08;;;;;;;4.60;3.58;;;;;;;16.55;100.00;99830.16;5029157;28;20168;-72
2023/06/12 02:39:34;;;;;;;3.57;3.00;;;;;;;16.44;100.00;99811.00;5030092;28;20036;-65
2023/06/12 02:42:00;;;;;;;5.13;3.45;;;;;;;16.68;100.00;99841.44;5029543;28;20370;-64
2023/06/12 02:44:25;;;;;;;4.55;2.80;;;;;;;16.78;100.00;99842.34;5029194;28;20402;-66
2023/06/12 02:46:52;;;;;;;5.20;3.30;;;;;;;16.92;100.00;99840.66;5029699;28;20473;-69
2023/06/12 02:49:19;;;;;;;5.40;3.28;;;;;;;17.01;100.00;99850.22;5029417;28;20111;-66
2023/06/12 02:51:44;;;;;;;5.97;3.08;;;;;;;17.02;100.00;99845.88;5029769;28;20022;-68
2023/06/12 02:54:10;;;;;;;5.15;3.22;;;;;;;17.12;100.00;99853.72;5029607;28;20033;-65
2023/06/12 02:56:35;;;;;;;6.60;3.35;;;;;;;17.05;100.00;99854.56;5033049;28;20050;-66
2023/06/12 02:59:02;;;;;;;4.68;3.15;;;;;;;16.88;100.00;99835.41;5032910;28;20028;-65
2023/06/12 03:01:28;;;;;;;4.43;2.90;;;;;;;16.78;100.00;99811.91;5032828;28;20395;-67
2023/06/12 03:03:56;;;;;;;6.40;3.13;;;;;;;16.89;100.00;99824.97;5033479;28;20029;-69
2023/06/12 03:06:26;;;;;;;7.07;3.20;;;;;;;17.06;100.00;99852.81;5032942;28;20111;-67
2023/06/12 03:08:51;;;;;;;;;;;;;;;17.18;100.00;99871.06;5033668;28;20121;-70
2023/06/12 03:11:17;;;;;;;4.22;3.20;;;;;;;17.17;100.00;99879.81;5032908;28;20003;-67
2023/06/12 03:13:42;;;;;;;4.50;3.58;;;;;;;16.98;100.00;99865.84;5032699;28;20029;-65
2023/06/12 03:16:09;;;;;;;4.68;3.90;;;;;;;17.05;100.00;99879.78;5032959;28;20037;-68
2023/06/12 03:18:35;;;;;;;6.72;3.97;;;;;;;16.45;100.00;99776.28;5033241;28;20021;-67
2023/06/12 03:21:01;;;;;;;6.82;4.00;;;;;;;16.94;100.00;99884.97;5032860;28;20086;-65
2023/06/12 03:23:26;;;;;;;5.93;4.65;;;;;;;16.49;100.00;99825.78;5031715;28;20117;-65
2023/06/12 03:25:52;;;;;;;6.63;4.40;;;;;;;16.97;100.00;99888.47;5032519;28;20048;-67
2023/06/12 03:28:17;;;;;;;7.35;4.70;;;;;;;16.72;100.00;99832.75;5032339;28;20044;-67
2023/06/12 03:30:42;;;;;;;8.27;4.60;;;;;;;17.13;100.00;99886.75;5032363;28;20423;-66
2023/06/12 03:33:09;;;;;;;9.35;4.40;;;;;;;17.12;100.00;99889.34;5032943;28;20111;-69
2023/06/12 03:35:35;;;;;;;8.30;5.00;;;;;;;16.98;100.00;99881.50;5032662;28;20112;-66
2023/06/12 03:38:01;;;;;;;11.18;4.97;;;;;;;16.86;100.00;99876.22;5031421;28;20116;-67
2023/06/12 03:40:26;;;;;;;8.93;5.32;;;;;;;16.69;100.00;99863.19;5032105;28;20105;-65
2023/06/12 03:42:51;;;;;;;10.10;5.40;;;;;;;16.86;100.00;99884.94;5032157;28;20060;-66
2023/06/12 03:45:17;;;;;;;13.80;7.22;;;;;;;16.77;100.00;99887.50;5032218;28;20029;-69
2023/06/12 03:47:42;;;;;;;13.35;6.53;;;;;;;16.62;100.00;99884.03;5032514;28;20126;-65
2023/06/12 03:50:09;;;;;;;11.23;5.93;;;;;;;16.71;100.00;99895.31;5032078;28;20113;-66
2023/06/12 03:52:35;;;;;;;9.00;5.80;;;;;;;16.81;100.00;99889.28;5032373;28;20022;-68
2023/06/12 03:55:00;;;;;;;7.97;5.57;;;;;;;16.85;100.00;99896.22;5031865;28;20519;-66
2023/06/12 03:57:26;;;;;;;14.70;6.28;;;;;;;16.94;100.00;99890.19;5031137;28;20084;-67
2023/06/12 03:59:51;;;;;;;15.50;6.63;;;;;;;17.00;100.00;99879.78;5029683;28;20037;-65
2023/06/12 04:02:16;;;;;;;11.55;6.25;;;;;;;17.19;100.00;99898.91;5030341;28;20029;-65
2023/06/12 04:04:42;;;;;;;11.35;5.43;;;;;;;17.32;100.00;99904.13;5017553;28;20033;-67
2023/06/12 04:07:07;;;;;;;10.85;4.93;;;;;;;17.31;100.00;99882.41;5031108;28;20030;-67
2023/06/12 04:09:33;;;;;;;17.40;6.30;;;;;;;17.19;100.00;99853.72;5031800;28;20028;-67
2023/06/12 04:11:58;;;;;;;13.25;5.55;;;;;;;17.46;100.00;99898.03;5028221;28;20030;-66
2023/06/12 04:14:24;;;;;;;10.82;4.70;;;;;;;17.19;100.00;99849.34;5026430;28;20083;-68
2023/06/12 04:16:49;;;;;;;9.13;4.53;;;;;;;16.83;100.00;99830.19;5031519;28;20043;-65
2023/06/12 04:19:16;;;;;;;8.27;4.93;;;;;;;16.68;100.00;99877.94;5029301;28;20103;-66
2023/06/12 04:21:41;;;;;;;9.90;5.22;;;;;;;16.95;100.00;99894.56;5018832;28;20495;-64
2023/06/12 04:24:15;;;;;;;10.52;5.47;;;;;;;17.04;100.00;99904.13;5031215;28;20029;-66
2023/06/12 04:26:41;;;;;;;8.45;5.40;;;;;;;17.14;100.00;99900.66;5031101;28;20029;-66
2023/06/12 04:29:08;;;;;;;13.48;5.70;;;;;;;17.16;100.00;99893.72;5031836;28;20037;-68
2023/06/12 04:31:34;;;;;;;13.88;6.30;;;;;;;17.04;100.00;99891.94;5019036;28;20040;-69
2023/06/12 04:34:00;;;;;;;9.95;6.43;;;;;;;17.17;100.00;99903.28;5011604;28;20404;-69
2023/06/12 04:36:25;;;;;;;13.93;7.95;;;;;;;17.21;100.00;99894.56;5011412;28;20493;-67
2023/06/12 04:38:51;;;;;;;14.75;7.85;;;;;;;17.36;100.00;99908.47;5011982;28;20037;-65
2023/06/12 04:41:24;;;;;;;13.35;7.90;;;;;;;17.39;100.00;99905.88;5028625;28;20121;-66
2023/06/12 04:43:49;;;;;;;15.80;8.73;;;;;;;17.35;100.00;99904.16;5031059;28;20028;-69
2023/06/12 04:46:17;;;;;;;16.17;8.40;;;;;;;17.30;100.00;99896.31;5031467;28;20029;-66
2023/06/12 04:48:43;;;;;;;14.90;9.20;;;;;;;17.46;100.00;99897.19;5031119;28;20108;-66
2023/06/12 04:51:09;;;;;;;15.80;9.20;;;;;;;17.66;100.00;99901.50;5031630;28;20064;-68
2023/06/12 04:53:39;;;;;;;14.10;8.35;;;;;;;17.67;100.00;99887.56;5030855;28;20051;-66
2023/06/12 04:56:08;;;;;;;17.10;8.48;;;;;;;17.35;100.00;99844.16;5031237;28;20064;-65
2023/06/12 04:58:43;;;;;;;11.70;8.18;;;;;;;17.75;100.00;99917.16;5031171;28;20498;-67
2023/06/12 05:01:08;;;;;;;13.88;8.32;;;;;;;17.42;100.00;99832.81;5030880;28;20029;-69
2023/06/12 05:03:34;;;;;;;18.40;9.38;;;;;;;17.86;100.00;99902.34;5031378;28;20041;-65
2023/06/12 05:06:03;;;;;;;13.63;9.13;;;;;;;17.90;100.00;99900.59;5030241;28;20373;-66
2023/06/12 05:08:28;;;;;;;;;;;;;;;18.03;100.00;99907.56;5031392;28;20025;-64
2023/06/12 05:10:54;;;;;;;12.23;8.75;;;;;;;17.75;100.00;99847.53;5030507;28;19971;-66
2023/06/12 05:13:19;;;;;;;16.23;8.75;;;;;;;18.04;100.00;99887.53;5031048;28;20388;-66
2023/06/12 05:15:45;;;;;;;15.25;8.68;;;;;;;18.35;100.00;99916.16;5030506;28;20029;-69
2023/06/12 05:18:10;;;;;;;12.57;8.13;;;;;;;18.44;100.00;99923.97;5029898;28;20468;-65
2023/06/12 05:20:36;;;;;;;18.23;7.72;;;;;;;18.54;100.00;99919.56;5030289;28;20032;-68
2023/06/12 05:23:02;;;;;;;13.02;7.80;;;;;;;18.60;100.00;99919.53;5029503;28;20030;-66
2023/06/12 05:25:28;;;;;;;12.15;7.70;;;;;;;18.48;100.00;99886.50;5030573;28;20032;-64
2023/06/12 05:27:53;;;;;;;13.45;7.75;;;;;;;18.39;100.00;99857.78;5030405;28;20033;-65
2023/06/12 05:30:18;;;;;;;13.13;7.97;;;;;;;18.79;100.00;99909.88;5030678;28;20036;-65
2023/06/12 05:32:44;;;;;;;18.48;8.13;;;;;;;18.92;100.00;99922.00;5030285;28;20031;-63
2023/06/12 05:35:09;;;;;;;16.55;8.57;;;;;;;18.99;100.00;99933.31;5030322;28;20084;-65
2023/06/12 05:37:35;;;;;;;15.98;8.65;;;;;;;18.91;100.00;99932.47;5030280;28;20041;-66
2023/06/12 05:40:01;;;;;;;17.48;9.05;;;;;;;18.72;100.00;99877.63;5030380;28;20468;-65
2023/06/12 05:42:27;;;;;;;12.52;9.73;;;;;;;19.01;100.00;99925.44;5030345;28;20022;-65
2023/06/12 05:44:52;;;;;;;17.35;10.38;;;;;;;19.05;100.00;99921.94;5028030;28;20038;-64
2023/06/12 05:47:17;;;;;;;12.52;9.30;;;;;;;18.82;100.00;99907.22;5030243;28;20029;-65
2023/06/12 05:49:43;;;;;;;17.63;9.77;;;;;;;18.85;100.00;99906.34;5029919;28;20483;-65
2023/06/12 05:52:10;;;;;;;14.88;9.52;;;;;;;19.03;100.00;99919.31;5028524;28;20034;-68
2023/06/12 05:54:36;;;;;;;18.08;11.23;;;;;;;19.01;100.00;99909.75;5030198;28;20029;-64
2023/06/12 05:57:02;;;;;;;17.58;10.75;;;;;;;19.20;100.00;99923.56;5029830;28;20049;-64
2023/06/12 05:59:28;;;;;;;17.05;9.85;;;;;;;18.88;100.00;99848.78;5030178;28;20055;-65
2023/06/12 06:01:55;;;;;;;16.98;10.50;;;;;;;19.27;100.00;99913.94;5030055;28;20108;-65
2023/06/12 06:04:21;;;;;;;16.80;10.82;;;;;;;19.32;100.00;99907.78;5029788;28;20021;-67
2023/06/12 06:06:48;;;;;;;16.63;11.48;;;;;;;19.29;100.00;99899.97;5029451;28;20052;-65
2023/06/12 06:09:17;;;;;;;19.30;11.80;;;;;;;19.40;100.00;99902.47;5030237;28;20468;-67
2023/06/12 06:11:42;;;;;;;19.10;11.48;;;;;;;19.42;100.00;99894.63;5030028;28;20017;-66
2023/06/12 06:14:07;;;;;;;15.43;11.88;;;;;;;19.60;100.00;99917.16;5029825;28;20185;-71
2023/06/12 06:16:33;;;;;;;15.10;10.75;;;;;;;19.87;100.00;99914.28;5029861;28;20022;-65
2023/06/12 06:18:58;;;;;;;23.63;17.33;;;;;;;19.59;100.00;99844.69;5029993;28;20029;-64
2023/06/12 06:21:24;;;;;;;19.77;13.82;;;;;;;20.19;100.00;99918.31;5029296;28;20029;-66
2023/06/12 06:23:49;;;;;;;16.85;12.13;;;;;;;20.36;100.00;99917.22;5029458;28;20021;-64
2023/06/12 06:26:15;;;;;;;17.90;12.35;;;;;;;20.64;100.00;99924.78;5030120;28;20041;-66
2023/06/12 06:28:40;;;;;;;17.42;10.75;;;;;;;20.68;100.00;99921.22;5031137;28;20082;-63
2023/06/12 06:31:09;;;;;;;18.42;10.73;;;;;;;20.66;100.00;99900.25;5034618;28;20395;-70
2023/06/12 06:33:35;;;;;;;15.70;11.03;;;;;;;20.99;100.00;99931.31;5034048;28;20053;-65
2023/06/12 06:36:01;;;;;;;23.45;11.98;;;;;;;20.98;100.00;99895.47;5034186;28;20029;-69
2023/06/12 06:38:27;;;;;;;15.27;11.02;;;;;;;21.21;100.00;99923.09;5034023;28;20499;-65
2023/06/12 06:40:52;;;;;;;17.02;10.52;;;;;;;21.37;100.00;99929.88;5034301;28;20029;-64
2023/06/12 06:43:18;;;;;;;15.07;10.45;;;;;;;21.55;100.00;99930.44;5034176;28;20022;-65
2023/06/12 06:45:44;;;;;;;15.02;10.80;;;;;;;21.61;100.00;99928.59;5034419;28;20033;-64
2023/06/12 06:48:12;;;;;;;14.93;9.70;;;;;;;21.69;100.00;99928.47;5032705;28;20053;-63
2023/06/12 06:50:38;;;;;;;12.82;8.80;;;;;;;21.78;100.00;99930.94;5033857;28;20034;-64
2023/06/12 06:53:04;;;;;;;13.77;9.85;;;;;;;21.83;100.00;99928.22;5033813;28;20411;-65
2023/06/12 06:55:29;;;;;;;13.35;7.70;;;;;;;21.54;100.00;99878.81;5034048;28;20034;-70
2023/06/12 06:57:55;;;;;;;14.90;8.60;;;;;;;21.64;100.00;99878.63;5033667;28;20106;-65
2023/06/12 07:00:23;;;;;;;11.90;8.00;;;;;;;22.12;100.00;99924.19;5033957;28;20488;-69
2023/06/12 07:02:49;;;;;;;10.27;6.82;;;;;;;22.18;100.00;99928.44;5033501;28;20040;-71
2023/06/12 07:05:15;;;;;;;11.13;6.70;;;;;;;22.18;100.00;99915.31;5033939;28;20068;-70
2023/06/12 07:07:42;;;;;;;12.38;6.90;;;;;;;22.27;100.00;99926.50;5033533;28;20448;-64
2023/06/12 07:10:07;;;;;;;13.15;6.82;;;;;;;22.35;100.00;99930.75;5033394;28;20491;-65
2023/06/12 07:12:34;;;;;;;10.40;6.72;;;;;;;22.36;100.00;99914.94;5033793;28;20040;-65
2023/06/12 07:14:59;;;;;;;12.15;7.00;;;;;;;22.33;100.00;99917.63;5033777;28;20033;-65
2023/06/12 07:17:24;;;;;;;10.77;6.60;;;;;;;22.34;100.00;99908.81;5033109;28;20032;-63
2023/06/12 07:19:50;;;;;;;14.00;6.55;;;;;;;22.49;100.00;99915.56;5033286;28;20033;-70
2023/06/12 07:22:15;;;;;;;8.85;6.10;;;;;;;22.18;100.00;99865.34;5033213;28;20029;-70
2023/06/12 07:24:41;;;;;;;9.82;6.60;;;;;;;22.54;100.00;99915.47;5033472;28;20084;-69
2023/06/12 07:27:07;;;;;;;14.07;6.75;;;;;;;22.62;100.00;99914.41;5033454;28;20079;-66
2023/06/12 07:29:32;;;;;;;11.98;6.45;;;;;;;22.72;100.00;99915.06;5033577;28;20460;-65
2023/06/12 07:31:57;;;;;;;8.50;6.65;;;;;;;22.77;100.00;99909.72;5033120;28;20022;-65
2023/06/12 07:34:23;;;;;;;11.13;6.10;;;;;;;22.54;100.00;99920.72;5030912;28;20038;-64
2023/06/12 07:36:49;;;;;;;9.27;5.97;;;;;;;22.47;100.00;99896.34;5033000;28;20065;-65
2023/06/12 07:39:14;;;;;;;10.80;5.95;;;;;;;22.42;100.00;99856.13;5033362;28;20049;-63
2023/06/12 07:41:42;;;;;;;10.63;5.95;;;;;;;22.81;100.00;99914.00;5032376;28;20037;-65
2023/06/12 07:44:10;;;;;;;9.73;5.43;;;;;;;22.89;100.00;99916.44;5033286;28;20032;-64
2023/06/12 07:46:37;;;;;;;9.13;5.53;;;;;;;23.01;100.00;99907.41;5032941;28;20029;-65
2023/06/12 07:49:02;;;;;;;11.18;5.50;;;;;;;23.12;99.36;99912.44;5033121;28;20104;-65
2023/06/12 07:51:28;;;;;;;9.77;4.60;;;;;;;23.15;95.12;99891.28;5033127;28;20104;-67
2023/06/12 07:53:53;;;;;;;8.05;4.50;;;;;;;23.26;98.05;99911.25;5031926;28;20026;-65
2023/06/12 07:56:19;;;;;;;8.45;4.70;;;;;;;23.19;94.57;99912.28;5032965;28;20088;-69
2023/06/12 07:58:46;;;;;;;6.78;4.10;;;;;;;23.12;93.78;99897.50;5033052;28;20055;-66
2023/06/12 08:01:13;;;;;;;10.15;4.80;;;;;;;23.29;94.78;99909.41;5032663;28;20037;-67
2023/06/12 08:03:39;;;;;;;7.57;4.85;;;;;;;23.35;97.30;99899.63;5032645;28;20373;-64
2023/06/12 08:06:12;;;;;;;9.07;4.78;;;;;;;23.14;94.31;99839.53;5031586;28;20029;-65
2023/06/12 08:08:45;;;;;;;10.02;4.57;;;;;;;23.68;93.05;99907.53;5032939;28;20051;-65
2023/06/12 08:11:11;;;;;;;10.38;4.80;;;;;;;23.73;91.05;99907.44;5032727;28;20076;-66
2023/06/12 08:13:37;;;;;;;8.27;4.60;;;;;;;23.56;88.76;99868.34;5032706;28;20030;-70
2023/06/12 08:16:03;;;;;;;6.13;4.10;;;;;;;23.97;90.50;99907.69;5032555;28;20443;-65
2023/06/12 08:18:28;;;;;;;7.45;4.22;;;;;;;24.12;93.15;99909.03;5031107;28;20033;-65
2023/06/12 08:20:54;;;;;;;6.97;4.38;;;;;;;23.93;89.59;99848.91;5032611;28;20064;-67
2023/06/12 08:23:20;;;;;;;7.70;4.35;;;;;;;24.21;87.47;99906.13;5032734;28;20538;-68
2023/06/12 08:25:45;;;;;;;7.97;4.28;;;;;;;24.31;89.78;99918.19;5032330;28;20040;-68
2023/06/12 08:28:11;;;;;;;9.68;4.63;;;;;;;24.28;86.90;99883.09;5031858;28;20029;-68
2023/06/12 08:30:38;;;;;;;6.20;4.18;;;;;;;24.47;85.70;99904.53;5032517;28;20491;-67
2023/06/12 08:33:03;;;;;;;7.28;4.20;;;;;;;24.60;86.28;99905.88;5032133;28;20029;-66
2023/06/12 08:35:29;;;;;;;8.93;4.47;;;;;;;24.71;86.68;99906.47;5032177;28;20026;-71
2023/06/12 08:37:55;;;;;;;6.63;4.22;;;;;;;24.70;86.12;99907.38;5032162;28;20032;-66
2023/06/12 08:40:21;;;;;;;8.45;4.32;;;;;;;24.78;88.06;99890.44;5032069;28;20033;-69
2023/06/12 08:42:51;;;;;;;10.15;4.18;;;;;;;24.95;85.54;99888.13;5030527;28;20056;-69
2023/06/12 08:45:17;;;;;;;;;;;;;;;24.91;86.43;99893.53;5032437;28;20056;-64
2023/06/12 08:47:51;;;;;;;6.95;4.63;;;;;;;24.91;85.92;99897.06;5031813;28;20374;-65
2023/06/12 08:50:18;;;;;;;10.32;4.90;;;;;;;24.89;87.36;99877.75;5031928;28;20022;-64
2023/06/12 08:52:46;;;;;;;8.32;4.70;;;;;;;24.98;84.00;99893.28;5031963;28;20061;-64
2023/06/12 08:55:14;;;;;;;10.65;4.65;;;;;;;24.96;82.05;99889.84;5024109;28;20037;-67
2023/06/12 08:57:41;;;;;;;7.50;4.38;;;;;;;25.08;82.29;99890.38;5013648;28;20149;-69
2023/06/12 09:00:14;;;;;;;10.90;4.72;;;;;;;25.19;84.23;99881.16;5011889;28;20472;-65
2023/06/12 09:02:45;;;;;;;6.95;4.40;;;;;;;25.27;81.52;99887.97;5009700;28;20515;-64
2023/06/12 09:05:17;;;;;;;6.13;4.45;;;;;;;25.04;81.34;99856.13;5011998;28;20026;-67
2023/06/12 09:07:45;;;;;;;8.20;4.25;;;;;;;25.11;85.29;99866.47;5011996;28;20062;-66
2023/06/12 09:10:11;;;;;;;9.23;5.00;;;;;;;25.30;81.53;99867.59;5011701;28;20033;-68
2023/06/12 09:12:36;;;;;;;8.90;3.88;;;;;;;25.26;79.05;99871.28;5011440;28;20444;-68
2023/06/12 09:15:02;;;;;;;6.50;4.55;;;;;;;25.01;81.54;99850.06;5010602;28;20062;-69
2023/06/12 09:17:28;;;;;;;11.85;5.00;;;;;;;24.66;81.17;99823.91;5011819;28;20117;-68
2023/06/12 09:19:54;;;;;;;10.85;5.00;;;;;;;24.85;80.27;99837.38;5018812;28;20030;-69
2023/06/12 09:22:21;;;;;;;10.98;5.22;;;;;;;25.07;80.26;99864.88;5015851;28;20100;-68
2023/06/12 09:24:46;;;;;;;7.93;4.28;;;;;;;25.36;79.46;99861.25;5023471;28;20060;-65
2023/06/12 09:27:12;;;;;;;8.45;4.32;;;;;;;25.51;80.96;99865.19;5011311;28;20034;-67
2023/06/12 09:29:42;;;;;;;7.93;4.18;;;;;;;25.65;78.95;99854.13;5010957;28;20038;-67
2023/06/12 09:32:11;;;;;;;10.00;4.47;;;;;;;25.96;78.35;99856.50;5013849;28;20091;-68
2023/06/12 09:34:37;;;;;;;;;;;;;;;25.87;80.35;99845.41;5028275;28;20065;-68
2023/06/12 09:37:08;;;;;;;11.13;4.75;;;;;;;25.88;75.80;99845.34;5020098;28;20390;-68
2023/06/12 09:39:34;;;;;;;9.23;4.57;;;;;;;26.01;78.65;99827.25;5010388;28;20543;-71
2023/06/12 09:42:01;;;;;;;10.40;4.18;;;;;;;26.24;81.40;99844.06;5026627;28;20029;-67
2023/06/12 09:44:28;;;;;;;7.13;4.22;;;;;;;26.20;78.85;99824.81;5025581;28;20762;-65
2023/06/12 09:47:01;;;;;;;8.05;3.90;;;;;;;26.05;73.73;99797.13;5023214;28;20411;-66
2023/06/12 09:49:27;;;;;;;7.45;4.45;;;;;;;26.32;76.40;99840.22;5017612;28;20138;-68
2023/06/12 09:51:54;;;;;;;7.85;4.00;;;;;;;26.30;74.85;99798.84;5018069;28;20219;-65
2023/06/12 09:54:21;;;;;;;4.90;3.85;;;;;;;26.43;71.75;99823.03;5030005;28;20032;-65
2023/06/12 09:56:49;;;;;;;7.68;4.38;;;;;;;26.54;74.33;99833.22;5029912;28;20088;-69
2023/06/12 09:59:18;;;;;;;6.82;3.88;;;;;;;26.46;72.36;99820.28;5029825;28;20104;-65
2023/06/12 10:01:51;;;;;;;7.38;4.28;;;;;;;26.18;76.02;99821.34;5030334;28;20093;-67
2023/06/12 10:04:45;;;;;;;7.82;4.28;;;;;;;26.26;74.65;99829.00;5029419;28;20037;-67
2023/06/12 10:07:16;;;;;;;14.90;4.47;;;;;;;26.31;75.32;99813.81;5029933;28;20113;-66
2023/06/12 10:09:43;;;;;;;13.88;4.35;;;;;;;26.22;77.03;99771.81;5027623;28;20610;-69
2023/06/12 10:12:10;;;;;;;7.90;3.88;;;;;;;26.56;75.69;99819.00;5017159;28;20468;-67
2023/06/12 10:14:37;;;;;;;7.03;3.60;;;;;;;26.58;71.28;99829.50;5020134;28;20113;-69
2023/06/12 10:17:04;;;;;;;11.45;3.70;;;;;;;26.52;71.61;99820.06;5010078;28;20085;-66
2023/06/12 10:19:31;;;;;;;4.13;3.20;;;;;;;26.44;73.32;99817.72;5010401;28;20038;-68
2023/06/12 10:21:56;;;;;;;6.70;3.90;;;;;;;26.34;71.45;99811.03;5026567;28;20036;-67
2023/06/12 10:24:23;;;;;;;7.47;4.07;;;;;;;26.45;71.98;99811.47;5030263;28;20412;-70
2023/06/12 10:26:52;;;;;;;7.93;3.85;;;;;;;26.62;72.96;99805.50;5028372;28;20037;-68
2023/06/12 10:29:32;;;;;;;7.43;3.65;;;;;;;26.77;72.94;99780.22;5029890;28;20025;-69
2023/06/12 10:32:05;;;;;;;7.85;3.47;;;;;;;27.00;66.90;99761.66;5030564;28;20128;-68
2023/06/12 10:34:35;;;;;;;7.05;3.50;;;;;;;27.54;67.04;99796.44;5017354;28;20031;-68
2023/06/12 10:37:19;;;;;;;;;;;;;;;27.77;66.21;99803.38;5015969;28;20042;-66
2023/06/12 10:39:46;;;;;;;6.13;3.38;;;;;;;27.97;65.04;99796.31;5015129;28;20295;-68
2023/06/12 10:42:11;;;;;;;7.15;3.53;;;;;;;28.22;63.46;99794.22;5010138;28;20033;-72
2023/06/12 10:44:41;;;;;;;9.20;3.53;;;;;;;28.12;65.70;99768.22;5009824;28;20018;-73
2023/06/12 10:47:40;;;;;;;5.68;3.53;;;;;;;28.46;66.78;99775.41;5010102;28;20041;-65
2023/06/12 10:50:06;;;;;;;10.87;3.60;;;;;;;28.67;60.29;99783.25;5039656;28;20049;-69
2023/06/12 10:52:32;;;;;;;5.47;3.15;;;;;;;28.23;60.77;99785.34;5026917;28;20325;-68
2023/06/12 10:55:15;;;;;;;6.13;3.78;;;;;;;27.96;65.05;99791.91;5026950;28;20049;-68
2023/06/12 10:57:48;;;;;;;6.00;3.80;;;;;;;28.27;65.81;99790.53;5027105;28;20060;-69
2023/06/12 11:00:16;;;;;;;4.80;3.55;;;;;;;28.33;63.20;99751.25;5032157;28;20069;-69
2023/06/12 11:02:44;;;;;;;7.45;3.90;;;;;;;28.85;62.90;99787.69;5020306;28;20083;-69
2023/06/12 11:05:10;;;;;;;7.85;3.50;;;;;;;28.87;60.64;99784.97;5027002;28;20034;-70
2023/06/12 11:07:35;;;;;;;7.03;3.60;;;;;;;28.63;62.42;99779.06;5028209;28;20125;-67
2023/06/12 11:10:10;;;;;;;6.63;3.53;;;;;;;28.41;60.32;99769.47;5046668;28;20067;-65
2023/06/12 11:12:36;;;;;;;5.07;3.03;;;;;;;28.58;60.70;99774.81;5030044;28;20035;-66
2023/06/12 11:15:01;;;;;;;6.10;3.60;;;;;;;28.93;62.98;99771.38;5046359;28;20049;-65
2023/06/12 11:17:29;;;;;;;8.98;3.97;;;;;;;28.82;60.91;99710.78;5049627;28;20036;-65
2023/06/12 11:20:00;;;;;;;7.72;3.30;;;;;;;28.89;59.47;99717.53;5049230;28;20052;-72
2023/06/12 11:22:25;;;;;;;6.38;3.38;;;;;;;29.29;59.33;99749.16;5027794;28;20393;-67
2023/06/12 11:25:02;;;;;;;8.27;3.60;;;;;;;28.96;58.02;99664.94;5017646;28;20030;-70